createdAt,value
2019-01-20T00:00:29.602Z,-5.81
2019-01-20T00:02:57.950Z,-5.82
2019-01-20T00:05:26.324Z,-5.81
2019-01-20T00:07:54.592Z,-5.77
2019-01-20T00:10:23.007Z,-5.79
2019-01-20T00:12:51.389Z,-5.80
2019-01-20T00:15:21.288Z,-5.82
2019-01-20T00:17:49.598Z,-5.78
2019-01-20T00:20:17.955Z,-5.79
2019-01-20T00:22:46.246Z,-5.80
2019-01-20T00:25:14.509Z,-5.84
2019-01-20T00:27:42.935Z,-5.93
2019-01-20T00:30:18.375Z,-6.03
2019-01-20T00:32:46.760Z,-6.09
2019-01-20T00:35:15.938Z,-6.13
2019-01-20T00:37:44.914Z,-6.15
2019-01-20T00:40:18.577Z,-6.16
2019-01-20T00:42:46.942Z,-6.17
2019-01-20T00:45:17.700Z,-6.16
2019-01-20T00:47:46.119Z,-6.16
2019-01-20T00:50:15.828Z,-6.15
2019-01-20T00:52:44.226Z,-6.09
2019-01-20T00:55:17.864Z,-6.07
2019-01-20T00:57:46.196Z,-6.07
2019-01-20T01:00:24.078Z,-6.11
2019-01-20T01:02:52.397Z,-6.24
2019-01-20T01:05:20.927Z,-6.28
2019-01-20T01:07:50.208Z,-6.34
2019-01-20T01:10:18.551Z,-6.37
2019-01-20T01:12:47.090Z,-6.38
2019-01-20T01:15:15.403Z,-6.43
2019-01-20T01:17:43.799Z,-6.43
2019-01-20T01:20:14.929Z,-6.35
2019-01-20T01:22:43.272Z,-6.34
2019-01-20T01:25:14.187Z,-6.29
2019-01-20T01:27:42.552Z,-6.26
2019-01-20T01:30:16.779Z,-6.31
2019-01-20T01:32:45.095Z,-6.38
2019-01-20T01:35:13.501Z,-6.35
2019-01-20T01:37:41.902Z,-6.35
2019-01-20T01:40:13.003Z,-6.39
2019-01-20T01:42:41.375Z,-6.33
2019-01-20T01:45:15.766Z,-6.31
2019-01-20T01:47:44.095Z,-6.25
2019-01-20T01:50:14.087Z,-6.28
2019-01-20T01:52:42.531Z,-6.28
2019-01-20T01:55:11.925Z,-6.33
2019-01-20T01:57:40.544Z,-6.32
2019-01-20T02:00:12.537Z,-6.36
2019-01-20T02:02:40.969Z,-6.35
2019-01-20T02:05:09.913Z,-6.37
2019-01-20T02:07:38.325Z,-6.42
2019-01-20T02:10:15.270Z,-6.45
2019-01-20T02:12:43.591Z,-6.48
2019-01-20T02:15:14.216Z,-6.48
2019-01-20T02:17:43.778Z,-6.48
2019-01-20T02:20:15.295Z,-6.48
2019-01-20T02:22:43.665Z,-6.47
2019-01-20T02:25:12.053Z,-6.47
2019-01-20T02:27:40.407Z,-6.48
2019-01-20T02:30:14.728Z,-6.51
2019-01-20T02:32:42.995Z,-6.51
2019-01-20T02:35:11.361Z,-6.61
2019-01-20T02:37:39.722Z,-6.60
2019-01-20T02:40:11.699Z,-6.58
2019-01-20T02:42:40.081Z,-6.65
2019-01-20T02:45:11.404Z,-6.68
2019-01-20T02:47:39.719Z,-6.64
2019-01-20T02:50:11.335Z,-6.59
2019-01-20T02:52:39.765Z,-7.79
2019-01-20T02:55:08.092Z,-6.47
2019-01-20T02:57:36.504Z,-6.45
2019-01-20T03:00:08.258Z,-6.45
2019-01-20T03:02:36.523Z,-6.43
2019-01-20T03:05:08.093Z,-6.44
2019-01-20T03:07:36.393Z,-6.44
2019-01-20T03:10:07.568Z,-6.48
2019-01-20T03:12:36.009Z,-6.51
2019-01-20T03:15:07.423Z,-6.60
2019-01-20T03:17:35.766Z,-6.63
2019-01-20T03:20:07.640Z,-6.63
2019-01-20T03:22:36.042Z,-6.58
2019-01-20T03:25:06.783Z,-6.55
2019-01-20T03:27:35.139Z,-6.53
2019-01-20T03:30:05.827Z,-6.61
2019-01-20T03:32:34.164Z,-6.71
2019-01-20T03:35:02.534Z,-6.71
2019-01-20T03:37:30.902Z,-6.69
2019-01-20T03:39:59.196Z,-6.69
2019-01-20T03:42:27.556Z,-6.72
2019-01-20T03:44:56.075Z,-6.85
2019-01-20T03:47:24.338Z,-6.90
2019-01-20T03:49:52.619Z,-6.88
2019-01-20T03:52:21.070Z,-6.94
2019-01-20T03:54:49.326Z,-6.94
2019-01-20T03:57:17.672Z,-6.89
2019-01-20T03:59:48.108Z,-6.84
2019-01-20T04:02:18.081Z,-6.81
2019-01-20T04:04:46.421Z,-6.80
2019-01-20T04:07:14.811Z,-6.79
2019-01-20T04:09:43.162Z,-6.73
2019-01-20T04:12:11.548Z,-6.70
2019-01-20T04:14:39.854Z,-6.61
2019-01-20T04:17:08.257Z,-6.63
2019-01-20T04:19:36.543Z,-6.66
2019-01-20T04:22:04.880Z,-6.69
2019-01-20T04:24:33.192Z,-6.69
2019-01-20T04:27:01.543Z,-6.71
2019-01-20T04:29:29.930Z,-6.73
2019-01-20T04:31:58.248Z,-6.77
2019-01-20T04:34:26.502Z,-6.83
2019-01-20T04:36:54.920Z,-6.87
2019-01-20T04:39:23.273Z,-6.94
2019-01-20T04:41:51.614Z,-6.97
2019-01-20T04:44:19.975Z,-7.04
2019-01-20T04:46:48.329Z,-7.11
2019-01-20T04:49:16.697Z,-7.11
2019-01-20T04:51:45.048Z,-7.09
2019-01-20T04:54:14.009Z,-7.01
2019-01-20T04:56:42.323Z,-6.98
2019-01-20T04:59:10.633Z,-6.92
2019-01-20T05:01:38.933Z,-6.89
2019-01-20T05:04:07.274Z,-6.87
2019-01-20T05:06:35.691Z,-6.83
2019-01-20T05:09:05.589Z,-6.80
2019-01-20T05:11:33.860Z,-6.80
2019-01-20T05:14:02.302Z,-6.75
2019-01-20T05:16:30.639Z,-6.66
2019-01-20T05:18:58.995Z,-6.68
2019-01-20T05:21:27.298Z,-6.68
2019-01-20T05:23:55.608Z,-6.69
2019-01-20T05:26:24.078Z,-6.71
2019-01-20T05:28:52.352Z,-6.80
2019-01-20T05:31:20.713Z,-6.94
2019-01-20T05:33:49.187Z,-7.08
2019-01-20T05:36:17.479Z,-7.11
2019-01-20T05:38:45.800Z,-7.12
2019-01-20T05:41:14.273Z,-7.07
2019-01-20T05:43:42.613Z,-7.19
2019-01-20T05:46:10.979Z,-7.23
2019-01-20T05:48:39.401Z,-7.24
2019-01-20T05:51:07.831Z,-7.21
2019-01-20T05:53:36.171Z,-7.19
2019-01-20T05:56:04.536Z,-7.18
2019-01-20T05:58:33.000Z,-7.15
2019-01-20T06:01:01.431Z,-7.12
2019-01-20T06:03:29.804Z,-7.10
2019-01-20T06:05:58.214Z,-7.06
2019-01-20T06:08:26.787Z,-7.03
2019-01-20T06:10:55.114Z,-6.95
2019-01-20T06:13:23.563Z,-6.96
2019-01-20T06:15:51.889Z,-6.95
2019-01-20T06:18:20.387Z,-6.99
2019-01-20T06:20:48.791Z,-7.03
2019-01-20T06:23:17.262Z,-7.06
2019-01-20T06:25:45.684Z,-7.11
2019-01-20T06:28:13.995Z,-7.18
2019-01-20T06:30:42.255Z,-7.22
2019-01-20T06:33:10.624Z,-7.24
2019-01-20T06:35:38.886Z,-7.19
2019-01-20T06:38:07.157Z,-7.20
2019-01-20T06:40:35.584Z,-7.19
2019-01-20T06:43:03.964Z,-7.19
2019-01-20T06:45:39.180Z,-7.17
2019-01-20T06:48:07.654Z,-7.18
2019-01-20T06:50:36.003Z,-7.17
2019-01-20T06:53:04.601Z,-7.21
2019-01-20T06:55:32.871Z,-7.22
2019-01-20T06:58:01.140Z,-7.18
2019-01-20T07:00:29.630Z,-7.22
2019-01-20T07:02:58.116Z,-7.26
2019-01-20T07:05:26.382Z,-7.33
2019-01-20T07:07:55.758Z,-7.33
2019-01-20T07:10:39.079Z,-7.32
2019-01-20T07:13:10.042Z,-7.28
2019-01-20T07:15:37.476Z,-7.23
2019-01-20T07:18:05.795Z,-7.28
2019-01-20T07:20:34.543Z,-7.27
2019-01-20T07:23:03.270Z,-7.20
2019-01-20T07:25:31.725Z,-7.16
2019-01-20T07:28:00.576Z,-7.16
2019-01-20T07:30:29.440Z,-7.10
2019-01-20T07:32:57.714Z,-7.04
2019-01-20T07:35:26.075Z,-7.02
2019-01-20T07:37:54.462Z,-6.97
2019-01-20T07:40:22.883Z,-6.95
2019-01-20T07:42:51.470Z,-6.94
2019-01-20T07:45:20.234Z,-6.89
2019-01-20T07:47:48.572Z,-6.84
2019-01-20T07:50:19.798Z,-6.89
2019-01-20T07:52:48.148Z,-6.89
2019-01-20T07:55:16.536Z,-6.95
2019-01-20T07:57:45.073Z,-7.02
2019-01-20T08:00:16.416Z,-7.04
2019-01-20T08:02:44.832Z,-6.94
2019-01-20T08:05:13.363Z,-6.81
2019-01-20T08:07:41.947Z,-6.58
2019-01-20T08:10:22.309Z,-6.34
2019-01-20T08:12:50.679Z,-5.95
2019-01-20T08:15:19.044Z,-5.47
2019-01-20T08:17:47.474Z,-4.98
2019-01-20T08:20:22.008Z,-4.61
2019-01-20T08:22:50.408Z,-4.11
2019-01-20T08:25:19.733Z,-3.67
2019-01-20T08:27:48.244Z,-3.40
2019-01-20T08:30:20.050Z,-3.25
2019-01-20T08:32:48.399Z,-3.08
2019-01-20T08:35:16.718Z,-2.69
2019-01-20T08:37:45.381Z,-2.24
2019-01-20T08:40:16.773Z,-2.13
2019-01-20T08:42:45.115Z,-2.38
2019-01-20T08:45:16.815Z,-1.94
2019-01-20T08:47:48.376Z,-1.41
2019-01-20T08:50:16.844Z,-1.12
2019-01-20T08:52:45.249Z,-1.39
2019-01-20T08:55:14.887Z,-1.18
2019-01-20T08:57:43.302Z,-1.21
2019-01-20T09:00:14.786Z,-0.58
2019-01-20T09:02:44.136Z,-0.38
2019-01-20T09:05:13.473Z,-0.17
2019-01-20T09:07:41.882Z,-0.66
2019-01-20T09:10:19.398Z,-0.22
2019-01-20T09:12:48.578Z,0.14
2019-01-20T09:15:17.057Z,0.26
2019-01-20T09:17:47.043Z,0.07
2019-01-20T09:20:15.852Z,0.04
2019-01-20T09:22:45.311Z,0.08
2019-01-20T09:25:14.813Z,0.13
2019-01-20T09:27:43.490Z,0.10
2019-01-20T09:30:23.684Z,0.42
2019-01-20T09:32:52.090Z,0.77
2019-01-20T09:35:20.435Z,0.79
2019-01-20T09:38:03.472Z,-0.44
2019-01-20T09:40:34.189Z,1.17
2019-01-20T09:43:07.719Z,0.96
2019-01-20T09:45:37.234Z,1.04
2019-01-20T09:48:11.256Z,1.32
2019-01-20T09:50:39.887Z,1.36
2019-01-20T09:53:18.995Z,1.05
2019-01-20T09:55:49.174Z,0.96
2019-01-20T09:58:19.294Z,0.91
2019-01-20T10:00:47.909Z,1.26
2019-01-20T10:03:16.550Z,1.58
2019-01-20T10:05:48.004Z,1.77
2019-01-20T10:08:17.136Z,1.79
2019-01-20T10:10:48.993Z,1.92
2019-01-20T10:13:18.892Z,1.81
2019-01-20T10:15:52.563Z,1.97
2019-01-20T10:18:24.887Z,2.01
2019-01-20T10:20:54.616Z,2.17
2019-01-20T10:23:33.581Z,2.37
2019-01-20T10:26:03.387Z,2.42
2019-01-20T10:28:32.829Z,2.21
2019-01-20T10:31:01.328Z,1.82
2019-01-20T10:33:29.954Z,1.50
2019-01-20T10:36:02.324Z,1.65
2019-01-20T10:38:30.699Z,1.77
2019-01-20T10:40:58.994Z,1.81
2019-01-20T10:43:28.975Z,2.03
2019-01-20T10:45:57.454Z,1.93
2019-01-20T10:48:26.686Z,1.72
2019-01-20T10:50:55.914Z,1.41
2019-01-20T10:53:24.265Z,1.01
2019-01-20T10:55:52.749Z,1.42
2019-01-20T10:58:21.011Z,1.63
2019-01-20T11:00:49.418Z,2.05
2019-01-20T11:03:18.246Z,2.15
2019-01-20T11:05:46.516Z,2.12
2019-01-20T11:08:14.909Z,1.87
2019-01-20T11:10:43.262Z,2.07
2019-01-20T11:13:11.616Z,1.82
2019-01-20T11:15:40.037Z,1.90
2019-01-20T11:18:08.344Z,2.27
2019-01-20T11:20:36.616Z,2.02
2019-01-20T11:23:05.382Z,1.95
2019-01-20T11:25:37.333Z,1.90
2019-01-20T11:28:05.794Z,2.06
2019-01-20T11:30:34.784Z,1.67
2019-01-20T11:33:05.228Z,1.81
2019-01-20T11:35:34.920Z,1.77
2019-01-20T11:38:03.346Z,1.89
2019-01-20T11:40:31.782Z,2.05
2019-01-20T11:43:00.043Z,2.16
2019-01-20T11:45:31.096Z,2.37
2019-01-20T11:47:59.540Z,2.60
2019-01-20T11:50:27.960Z,2.76
2019-01-20T11:52:56.437Z,2.86
2019-01-20T11:55:25.142Z,2.85
2019-01-20T11:57:53.569Z,2.94
2019-01-20T12:00:28.260Z,2.80
2019-01-20T12:02:59.061Z,2.86
2019-01-20T12:05:27.520Z,2.89
2019-01-20T12:08:01.276Z,2.56
2019-01-20T12:10:29.932Z,2.37
2019-01-20T12:13:00.085Z,2.49
2019-01-20T12:15:29.457Z,2.71
2019-01-20T12:17:57.825Z,3.06
2019-01-20T12:20:27.105Z,3.26
2019-01-20T12:22:55.543Z,3.36
2019-01-20T12:25:23.919Z,3.04
2019-01-20T12:27:52.332Z,2.96
2019-01-20T12:30:29.646Z,2.99
2019-01-20T12:32:58.137Z,3.15
2019-01-20T12:35:26.519Z,3.22
2019-01-20T12:37:54.923Z,3.27
2019-01-20T12:40:26.480Z,3.42
2019-01-20T12:42:54.818Z,3.45
2019-01-20T12:45:23.198Z,3.77
2019-01-20T12:47:51.595Z,3.84
2019-01-20T12:50:19.924Z,3.90
2019-01-20T12:52:48.273Z,3.69
2019-01-20T12:55:16.721Z,3.82
2019-01-20T12:57:45.667Z,3.93
2019-01-20T13:00:18.126Z,3.92
2019-01-20T13:02:46.691Z,3.95
2019-01-20T13:05:15.978Z,4.05
2019-01-20T13:07:48.446Z,3.81
2019-01-20T13:10:19.660Z,3.53
2019-01-20T13:12:48.101Z,3.20
2019-01-20T13:15:19.965Z,3.21
2019-01-20T13:17:48.438Z,3.17
2019-01-20T13:20:23.314Z,3.11
2019-01-20T13:22:52.518Z,3.02
2019-01-20T13:25:24.372Z,2.85
2019-01-20T13:27:53.905Z,2.82
2019-01-20T13:30:25.673Z,2.66
2019-01-20T13:32:54.891Z,2.52
2019-01-20T13:35:23.932Z,2.46
2019-01-20T13:38:02.068Z,2.49
2019-01-20T13:40:33.771Z,2.46
2019-01-20T13:43:03.003Z,2.11
2019-01-20T13:45:31.477Z,2.30
2019-01-20T13:48:00.613Z,2.37
2019-01-20T13:50:29.054Z,2.31
2019-01-20T13:52:57.974Z,2.21
2019-01-20T13:55:26.347Z,2.25
2019-01-20T13:57:54.913Z,2.28
2019-01-20T14:00:26.228Z,2.22
2019-01-20T14:02:55.483Z,2.22
2019-01-20T14:05:24.666Z,2.20
2019-01-20T14:07:53.246Z,2.00
2019-01-20T14:10:23.954Z,2.04
2019-01-20T14:12:52.332Z,2.02
2019-01-20T14:15:20.748Z,1.70
2019-01-20T14:17:49.379Z,1.88
2019-01-20T14:20:28.964Z,1.92
2019-01-20T14:22:57.840Z,1.95
2019-01-20T14:25:29.493Z,1.73
2019-01-20T14:27:57.874Z,1.55
2019-01-20T14:30:29.517Z,1.63
2019-01-20T14:32:57.924Z,1.58
2019-01-20T14:35:26.502Z,1.42
2019-01-20T14:37:55.146Z,1.36
2019-01-20T14:40:23.698Z,-0.47
2019-01-20T14:42:53.405Z,0.98
2019-01-20T14:45:22.818Z,0.99
2019-01-20T14:47:53.013Z,0.98
2019-01-20T14:50:28.335Z,0.95
2019-01-20T14:52:57.303Z,0.79
2019-01-20T14:55:26.299Z,0.85
2019-01-20T14:57:56.295Z,0.83
2019-01-20T15:00:36.638Z,-0.81
2019-01-20T15:03:07.360Z,0.79
2019-01-20T15:05:35.869Z,0.81
2019-01-20T15:08:06.086Z,0.79
2019-01-20T15:10:34.765Z,0.75
2019-01-20T15:13:03.195Z,0.71
2019-01-20T15:15:34.633Z,0.64
2019-01-20T15:18:03.270Z,0.47
2019-01-20T15:20:31.693Z,0.47
2019-01-20T15:23:02.440Z,0.49
2019-01-20T15:25:30.970Z,0.50
2019-01-20T15:27:59.758Z,0.45
2019-01-20T15:30:32.555Z,0.36
2019-01-20T15:33:03.163Z,0.27
2019-01-20T15:35:31.510Z,0.20
2019-01-20T15:37:59.937Z,0.15
2019-01-20T15:40:28.259Z,0.12
2019-01-20T15:42:59.096Z,0.05
2019-01-20T15:45:27.549Z,0.04
2019-01-20T15:47:55.982Z,-0.03
2019-01-20T15:50:31.340Z,-0.11
2019-01-20T15:52:59.939Z,-0.19
2019-01-20T15:55:28.307Z,-0.24
2019-01-20T15:57:56.763Z,-0.31
2019-01-20T16:00:28.864Z,-0.35
2019-01-20T16:02:57.415Z,-0.44
2019-01-20T16:05:26.733Z,-0.51
2019-01-20T16:07:55.335Z,-0.57
2019-01-20T16:10:25.452Z,-0.62
2019-01-20T16:12:55.838Z,-0.65
2019-01-20T16:15:29.862Z,-0.70
2019-01-20T16:17:58.380Z,-0.73
2019-01-20T16:20:28.769Z,-0.79
2019-01-20T16:22:57.334Z,-0.87
2019-01-20T16:25:31.232Z,-0.92
2019-01-20T16:27:59.701Z,-0.99
2019-01-20T16:30:30.967Z,-1.01
2019-01-20T16:32:59.522Z,-1.07
2019-01-20T16:35:27.988Z,-1.11
2019-01-20T16:37:58.435Z,-1.15
2019-01-20T16:40:27.659Z,-1.20
2019-01-20T16:42:56.160Z,-1.28
2019-01-20T16:45:32.887Z,-1.29
2019-01-20T16:47:58.174Z,-1.35
2019-01-20T16:50:26.433Z,-1.39
2019-01-20T16:52:56.677Z,-1.43
2019-01-20T16:55:25.120Z,-1.45
2019-01-20T16:57:54.140Z,-1.47
2019-01-20T17:00:28.821Z,-1.40
2019-01-20T17:02:57.205Z,-1.35
2019-01-20T17:05:27.031Z,-1.36
2019-01-20T17:07:55.975Z,-1.35
2019-01-20T17:10:29.081Z,-1.45
2019-01-20T17:12:58.559Z,-1.53
2019-01-20T17:15:30.355Z,-1.61
2019-01-20T17:17:58.750Z,-1.69
2019-01-20T17:20:27.975Z,-1.73
2019-01-20T17:22:56.376Z,-1.79
2019-01-20T17:25:24.745Z,-1.85
2019-01-20T17:27:53.150Z,-1.85
2019-01-20T17:30:27.375Z,-1.93
2019-01-20T17:32:55.865Z,-1.97
2019-01-20T17:35:24.169Z,-2.00
2019-01-20T17:37:52.582Z,-2.04
2019-01-20T17:40:26.198Z,-2.04
2019-01-20T17:42:54.795Z,-2.02
2019-01-20T17:45:30.057Z,-1.99
2019-01-20T17:47:58.506Z,-2.04
2019-01-20T17:50:31.852Z,-2.08
2019-01-20T17:53:00.918Z,-2.17
2019-01-20T17:55:29.203Z,-2.26
2019-01-20T17:57:58.036Z,-2.31
2019-01-20T18:00:36.918Z,-2.38
2019-01-20T18:03:08.581Z,-2.43
2019-01-20T18:05:37.293Z,-2.46
2019-01-20T18:08:05.824Z,-2.49
2019-01-20T18:10:34.352Z,-2.54
2019-01-20T18:13:02.930Z,-2.58
2019-01-20T18:15:32.703Z,-2.61
2019-01-20T18:18:02.184Z,-2.65
2019-01-20T18:20:32.657Z,-2.64
2019-01-20T18:23:01.169Z,-2.64
2019-01-20T18:25:29.574Z,-2.65
2019-01-20T18:27:58.224Z,-2.69
2019-01-20T18:30:31.678Z,-2.76
2019-01-20T18:33:00.148Z,-2.84
2019-01-20T18:35:29.146Z,-2.88
2019-01-20T18:37:57.474Z,-2.97
2019-01-20T18:40:26.852Z,-3.03
2019-01-20T18:42:55.382Z,-3.07
2019-01-20T18:45:26.976Z,-3.10
2019-01-20T18:47:55.279Z,-3.10
2019-01-20T18:50:32.543Z,-3.13
2019-01-20T18:53:01.290Z,-3.13
2019-01-20T18:55:30.282Z,-3.12
2019-01-20T18:57:59.143Z,-3.13
2019-01-20T19:00:30.335Z,-3.12
2019-01-20T19:02:58.750Z,-3.14
2019-01-20T19:05:30.561Z,-3.17
2019-01-20T19:07:59.293Z,-3.26
2019-01-20T19:10:27.599Z,-3.36
2019-01-20T19:12:56.199Z,-3.41
2019-01-20T19:15:24.958Z,-3.46
2019-01-20T19:17:53.910Z,-3.48
2019-01-20T19:20:25.216Z,-3.50
2019-01-20T19:22:56.917Z,-3.53
2019-01-20T19:25:25.643Z,-3.54
2019-01-20T19:27:54.512Z,-3.55
2019-01-20T19:30:29.820Z,-3.58
2019-01-20T19:32:59.037Z,-3.59
2019-01-20T19:35:28.647Z,-3.68
2019-01-20T19:37:59.236Z,-3.71
2019-01-20T19:40:31.066Z,-3.68
2019-01-20T19:43:00.327Z,-3.61
2019-01-20T19:45:33.221Z,-3.62
2019-01-20T19:48:04.613Z,-3.69
2019-01-20T19:50:36.165Z,-3.70
2019-01-20T19:53:06.695Z,-3.68
2019-01-20T19:55:37.119Z,-3.67
2019-01-20T19:58:08.968Z,-3.68
2019-01-20T20:00:40.693Z,-3.70
2019-01-20T20:03:10.365Z,-3.76
2019-01-20T20:05:39.830Z,-3.80
2019-01-20T20:08:09.022Z,-3.84
2019-01-20T20:10:38.177Z,-3.88
2019-01-20T20:13:06.775Z,-3.88
2019-01-20T20:15:35.539Z,-3.95
2019-01-20T20:18:04.412Z,-3.98
2019-01-20T20:20:32.840Z,-4.03
2019-01-20T20:23:01.194Z,-4.05
2019-01-20T20:25:29.519Z,-4.07
2019-01-20T20:27:58.136Z,-4.08
2019-01-20T20:30:29.529Z,-4.09
2019-01-20T20:32:57.879Z,-4.07
2019-01-20T20:35:26.281Z,-4.01
2019-01-20T20:37:54.574Z,-3.97
2019-01-20T20:40:23.231Z,-3.96
2019-01-20T20:42:51.639Z,-3.95
2019-01-20T20:45:22.270Z,-3.99
2019-01-20T20:47:50.662Z,-4.07
2019-01-20T20:50:19.157Z,-4.20
2019-01-20T20:52:50.078Z,-4.27
2019-01-20T20:55:18.547Z,-4.26
2019-01-20T20:57:46.972Z,-4.23
2019-01-20T21:00:18.433Z,-4.26
2019-01-20T21:02:46.785Z,-4.31
2019-01-20T21:05:16.077Z,-4.34
2019-01-20T21:07:47.767Z,-4.35
2019-01-20T21:10:35.323Z,-4.32
2019-01-20T21:13:10.679Z,-4.25
2019-01-20T21:15:46.501Z,-4.21
2019-01-20T21:18:25.074Z,-4.20
2019-01-20T21:20:53.746Z,-4.29
2019-01-20T21:23:22.089Z,-4.33
2019-01-20T21:25:50.390Z,-4.25
2019-01-20T21:28:19.871Z,-4.20
2019-01-20T21:30:48.356Z,-4.18
2019-01-20T21:33:16.866Z,-4.23
2019-01-20T21:35:48.152Z,-4.33
2019-01-20T21:38:21.986Z,-4.44
2019-01-20T21:40:50.279Z,-4.51
2019-01-20T21:43:18.767Z,-4.57
2019-01-20T21:45:48.979Z,-4.63
2019-01-20T21:48:18.231Z,-4.66
2019-01-20T21:50:48.374Z,-4.67
2019-01-20T21:53:17.620Z,-4.65
2019-01-20T21:55:45.893Z,-4.62
2019-01-20T21:58:14.596Z,-4.61
2019-01-20T22:00:42.997Z,-4.62
2019-01-20T22:03:11.401Z,-4.63
2019-01-20T22:05:40.560Z,-4.62
2019-01-20T22:08:09.880Z,-4.62
2019-01-20T22:10:38.393Z,-4.71
2019-01-20T22:13:07.402Z,-4.76
2019-01-20T22:15:36.431Z,-4.85
2019-01-20T22:18:06.885Z,-4.92
2019-01-20T22:20:36.158Z,-4.99
2019-01-20T22:23:06.364Z,-5.07
2019-01-20T22:25:35.099Z,-5.13
2019-01-20T22:28:03.598Z,-5.11
2019-01-20T22:30:33.534Z,-5.12
2019-01-20T22:33:02.191Z,-5.12
2019-01-20T22:35:33.559Z,-5.13
2019-01-20T22:38:02.268Z,-5.13
2019-01-20T22:40:31.055Z,-5.11
2019-01-20T22:42:59.632Z,-5.15
2019-01-20T22:45:28.983Z,-5.23
2019-01-20T22:47:57.425Z,-5.27
2019-01-20T22:50:26.367Z,-5.25
2019-01-20T22:52:56.341Z,-5.23
2019-01-20T22:55:24.688Z,-5.27
2019-01-20T22:57:54.786Z,-5.28
2019-01-20T23:00:40.110Z,-5.28
2019-01-20T23:03:08.789Z,-5.28
2019-01-20T23:05:37.217Z,-5.32
2019-01-20T23:08:05.621Z,-5.30
2019-01-20T23:10:33.995Z,-5.29
2019-01-20T23:13:02.450Z,-5.34
2019-01-20T23:15:30.856Z,-5.39
2019-01-20T23:17:59.311Z,-5.44
2019-01-20T23:20:28.203Z,-5.49
2019-01-20T23:22:56.683Z,-5.60
2019-01-20T23:25:25.026Z,-5.65
2019-01-20T23:27:53.301Z,-5.64
2019-01-20T23:30:21.702Z,-5.64
2019-01-20T23:32:49.975Z,-5.71
2019-01-20T23:35:18.316Z,-6.97
2019-01-20T23:37:46.589Z,-5.80
2019-01-20T23:40:18.692Z,-5.84
2019-01-20T23:42:47.084Z,-5.93
2019-01-20T23:45:15.366Z,-5.92
2019-01-20T23:47:43.735Z,-6.01
2019-01-20T23:50:17.351Z,-6.09
2019-01-20T23:52:45.703Z,-6.09
2019-01-20T23:55:14.046Z,-6.12
2019-01-20T23:57:42.732Z,-6.12
